createdAt,value
2019-03-31T00:00:47.114Z,38.83
2019-03-31T00:03:17.963Z,39.97
2019-03-31T00:05:48.825Z,42.10
2019-03-31T00:08:19.698Z,44.87
2019-03-31T00:10:49.686Z,44.40
2019-03-31T00:13:19.612Z,43.70
2019-03-31T00:15:50.384Z,45.67
2019-03-31T00:18:21.240Z,44.37
2019-03-31T00:20:52.031Z,46.57
2019-03-31T00:23:22.922Z,46.33
2019-03-31T00:25:53.755Z,43.77
2019-03-31T00:28:23.695Z,45.53
2019-03-31T00:30:55.063Z,46.27
2019-03-31T00:33:26.358Z,47.83
2019-03-31T00:35:57.220Z,48.63
2019-03-31T00:38:27.174Z,47.07
2019-03-31T00:40:57.872Z,49.93
2019-03-31T00:43:28.732Z,54.87
2019-03-31T00:45:59.791Z,58.37
2019-03-31T00:48:29.742Z,55.75
2019-03-31T00:50:59.595Z,56.27
2019-03-31T00:53:29.735Z,59.20
2019-03-31T00:55:59.585Z,58.50
2019-03-31T00:58:29.709Z,59.10
2019-03-31T01:01:19.711Z,60.70
2019-03-31T01:03:50.672Z,64.43
2019-03-31T01:06:22.302Z,62.27
2019-03-31T01:08:53.291Z,64.60
2019-03-31T01:11:26.926Z,67.23
2019-03-31T01:13:57.871Z,68.63
2019-03-31T01:16:30.063Z,64.77
2019-03-31T01:19:00.237Z,66.07
2019-03-31T01:21:31.017Z,65.13
2019-03-31T01:24:00.979Z,66.63
2019-03-31T01:26:31.848Z,68.90
2019-03-31T01:29:01.899Z,63.53
2019-03-31T01:31:33.351Z,66.30
2019-03-31T01:34:04.544Z,65.27
2019-03-31T01:36:35.503Z,62.23
2019-03-31T01:39:06.515Z,62.77
2019-03-31T01:41:36.387Z,59.83
2019-03-31T01:44:07.172Z,68.43
2019-03-31T01:46:38.020Z,65.90
2019-03-31T01:49:08.866Z,64.50
2019-03-31T01:51:38.803Z,65.93
2019-03-31T01:54:09.611Z,70.57
2019-03-31T01:56:39.560Z,64.37
2019-03-31T01:59:09.388Z,65.90
2019-03-31T02:01:39.246Z,65.73
2019-03-31T02:04:10.057Z,67.57
2019-03-31T02:06:40.005Z,68.10
2019-03-31T02:09:09.856Z,65.43
2019-03-31T02:11:39.727Z,62.87
2019-03-31T02:14:10.522Z,61.83
2019-03-31T02:16:41.414Z,66.60
2019-03-31T02:19:12.251Z,65.80
2019-03-31T02:21:43.191Z,65.67
2019-03-31T02:24:14.063Z,60.80
2019-03-31T02:26:44.990Z,62.60
2019-03-31T02:29:15.856Z,64.77
2019-03-31T02:31:45.813Z,66.50
2019-03-31T02:34:16.692Z,68.87
2019-03-31T02:36:48.101Z,68.13
2019-03-31T02:39:18.964Z,69.07
2019-03-31T02:41:49.839Z,69.80
2019-03-31T02:44:20.329Z,67.17
2019-03-31T02:46:50.226Z,65.27
2019-03-31T02:49:20.092Z,65.80
2019-03-31T02:51:50.865Z,71.07
2019-03-31T02:54:21.727Z,70.77
2019-03-31T02:56:53.676Z,71.73
2019-03-31T02:59:24.944Z,70.53
2019-03-31T03:01:57.491Z,71.80
2019-03-31T03:04:28.691Z,76.37
2019-03-31T03:07:00.672Z,81.10
2019-03-31T03:09:33.444Z,82.17
2019-03-31T03:12:07.381Z,84.23
2019-03-31T03:14:39.646Z,72.80
2019-03-31T03:17:09.595Z,80.13
2019-03-31T03:19:39.461Z,81.13
2019-03-31T03:22:10.964Z,85.27
2019-03-31T03:24:41.775Z,88.13
2019-03-31T03:27:11.721Z,89.03
2019-03-31T03:29:42.478Z,82.47
2019-03-31T03:32:13.408Z,81.43
2019-03-31T03:34:44.249Z,85.37
2019-03-31T03:37:15.129Z,83.63
2019-03-31T03:39:45.100Z,82.55
2019-03-31T03:42:15.873Z,85.97
2019-03-31T03:44:46.717Z,87.00
2019-03-31T03:47:17.603Z,87.03
2019-03-31T03:49:47.552Z,95.13
2019-03-31T03:52:18.315Z,91.27
2019-03-31T03:54:49.183Z,94.07
2019-03-31T03:57:20.980Z,91.63
2019-03-31T03:59:50.939Z,89.83
2019-03-31T04:02:21.708Z,88.63
2019-03-31T04:04:51.640Z,87.13
2019-03-31T04:07:22.442Z,92.47
2019-03-31T04:09:52.390Z,91.63
2019-03-31T04:12:22.235Z,84.63
2019-03-31T04:14:53.022Z,91.10
2019-03-31T04:17:23.887Z,88.40
2019-03-31T04:19:54.822Z,86.93
2019-03-31T04:22:25.670Z,91.40
2019-03-31T04:24:56.510Z,87.77
2019-03-31T04:27:27.378Z,85.77
2019-03-31T04:29:58.255Z,84.87
2019-03-31T04:32:29.104Z,86.50
2019-03-31T04:34:59.982Z,88.50
2019-03-31T04:37:30.835Z,84.00
2019-03-31T04:40:00.791Z,84.63
2019-03-31T04:42:31.539Z,85.27
2019-03-31T04:45:01.484Z,82.10
2019-03-31T04:47:32.243Z,80.83
2019-03-31T04:50:02.224Z,81.50
2019-03-31T04:52:32.992Z,84.30
2019-03-31T04:55:03.010Z,86.47
2019-03-31T04:57:32.789Z,85.77
2019-03-31T05:00:02.704Z,84.23
2019-03-31T05:02:33.438Z,82.83
2019-03-31T05:05:04.392Z,82.13
2019-03-31T05:07:35.262Z,82.82
2019-03-31T05:10:05.418Z,89.00
2019-03-31T05:12:36.159Z,89.30
2019-03-31T05:15:07.035Z,88.03
2019-03-31T05:17:37.889Z,80.57
2019-03-31T05:20:08.842Z,85.57
2019-03-31T05:22:40.310Z,87.57
2019-03-31T05:25:11.235Z,80.37
2019-03-31T05:27:42.086Z,88.23
2019-03-31T05:30:13.016Z,84.10
2019-03-31T05:32:43.883Z,84.43
2019-03-31T05:35:14.779Z,88.07
2019-03-31T05:37:50.956Z,91.77
2019-03-31T05:40:17.094Z,91.00
2019-03-31T05:42:48.019Z,92.33
2019-03-31T05:45:18.883Z,92.07
2019-03-31T05:47:49.668Z,91.13
2019-03-31T05:50:20.567Z,90.50
2019-03-31T05:52:51.486Z,95.27
2019-03-31T05:55:21.431Z,94.53
2019-03-31T05:57:52.203Z,97.83
2019-03-31T06:00:40.446Z,101.13
2019-03-31T06:03:11.230Z,101.53
2019-03-31T06:05:42.106Z,99.07
2019-03-31T06:08:13.028Z,99.53
2019-03-31T06:10:43.886Z,104.63
2019-03-31T06:13:14.828Z,102.87
2019-03-31T06:15:45.895Z,99.67
2019-03-31T06:18:16.771Z,102.97
2019-03-31T06:20:47.734Z,110.40
2019-03-31T06:23:18.586Z,105.00
2019-03-31T06:25:49.470Z,109.50
2019-03-31T06:28:20.370Z,107.13
2019-03-31T06:30:51.239Z,111.97
2019-03-31T06:33:22.211Z,115.27
2019-03-31T06:35:53.074Z,110.30
2019-03-31T06:38:23.918Z,107.10
2019-03-31T06:40:55.630Z,107.33
2019-03-31T06:43:26.448Z,103.23
2019-03-31T06:45:56.402Z,103.53
2019-03-31T06:48:27.223Z,110.73
2019-03-31T06:50:58.147Z,104.17
2019-03-31T06:53:28.982Z,98.53
2019-03-31T06:55:59.795Z,95.77
2019-03-31T06:58:29.726Z,91.85
2019-03-31T07:01:00.514Z,80.53
2019-03-31T07:03:31.400Z,75.27
2019-03-31T07:06:01.338Z,71.50
2019-03-31T07:08:31.208Z,62.50
2019-03-31T07:11:01.104Z,54.43
2019-03-31T07:13:31.928Z,52.20
2019-03-31T07:16:01.940Z,46.67
2019-03-31T07:18:32.810Z,47.40
2019-03-31T07:21:02.822Z,43.57
2019-03-31T07:23:33.659Z,44.83
2019-03-31T07:26:04.595Z,40.33
2019-03-31T07:28:35.547Z,37.97
2019-03-31T07:31:05.527Z,34.33
2019-03-31T07:33:36.379Z,33.00
2019-03-31T07:36:06.359Z,30.63
2019-03-31T07:38:39.170Z,30.53
2019-03-31T07:41:13.127Z,29.37
2019-03-31T07:43:41.324Z,29.17
2019-03-31T07:46:12.146Z,27.00
2019-03-31T07:48:42.210Z,25.87
2019-03-31T07:51:13.069Z,25.90
2019-03-31T07:53:43.984Z,23.87
2019-03-31T07:56:16.200Z,24.13
2019-03-31T07:58:47.149Z,24.33
2019-03-31T08:01:17.110Z,23.63
2019-03-31T08:03:47.894Z,23.47
2019-03-31T08:06:17.922Z,22.70
2019-03-31T08:08:48.687Z,22.73
2019-03-31T08:11:18.659Z,21.70
2019-03-31T08:13:48.509Z,21.40
2019-03-31T08:16:19.358Z,20.17
2019-03-31T08:18:49.316Z,19.47
2019-03-31T08:21:20.178Z,21.23
2019-03-31T08:23:50.123Z,20.00
2019-03-31T08:26:20.691Z,19.57
2019-03-31T08:28:50.637Z,20.20
2019-03-31T08:31:21.908Z,19.73
2019-03-31T08:33:52.774Z,20.03
2019-03-31T08:36:23.636Z,20.83
2019-03-31T08:38:54.507Z,20.60
2019-03-31T08:41:25.380Z,20.00
2019-03-31T08:43:56.271Z,19.43
2019-03-31T08:46:26.228Z,20.72
2019-03-31T08:48:57.023Z,20.70
2019-03-31T08:51:26.975Z,22.27
2019-03-31T08:53:57.770Z,20.93
2019-03-31T08:56:27.807Z,21.23
2019-03-31T08:58:57.587Z,19.77
2019-03-31T09:01:27.467Z,20.43
2019-03-31T09:03:57.312Z,21.50
2019-03-31T09:06:28.121Z,20.07
2019-03-31T09:08:58.052Z,20.10
2019-03-31T09:11:28.823Z,20.13
2019-03-31T09:13:58.826Z,18.97
2019-03-31T09:16:29.604Z,19.47
2019-03-31T09:19:00.513Z,19.97
2019-03-31T09:21:31.363Z,17.73
2019-03-31T09:24:02.259Z,17.67
2019-03-31T09:26:33.138Z,17.17
2019-03-31T09:29:03.091Z,18.53
2019-03-31T09:31:36.201Z,19.10
2019-03-31T09:34:06.151Z,18.90
2019-03-31T09:36:36.940Z,18.07
2019-03-31T09:39:07.257Z,18.67
2019-03-31T09:41:38.132Z,17.23
2019-03-31T09:44:08.094Z,16.27
2019-03-31T09:46:38.786Z,16.50
2019-03-31T09:49:09.690Z,15.57
2019-03-31T09:51:40.543Z,16.77
2019-03-31T09:54:11.492Z,16.67
2019-03-31T09:56:42.455Z,15.67
2019-03-31T09:59:12.402Z,15.70
2019-03-31T10:01:43.190Z,13.80
2019-03-31T10:04:14.135Z,14.17
2019-03-31T10:06:45.075Z,15.73
2019-03-31T10:09:15.054Z,15.83
2019-03-31T10:11:45.826Z,15.47
2019-03-31T10:14:16.711Z,15.33
2019-03-31T10:16:47.580Z,14.03
2019-03-31T10:19:18.464Z,14.83
2019-03-31T10:21:49.346Z,15.30
2019-03-31T10:24:20.185Z,15.83
2019-03-31T10:26:51.035Z,16.37
2019-03-31T10:29:20.970Z,16.27
2019-03-31T10:31:51.768Z,16.07
2019-03-31T10:34:22.655Z,16.40
2019-03-31T10:36:53.534Z,16.17
2019-03-31T10:39:24.443Z,14.77
2019-03-31T10:41:55.562Z,16.17
2019-03-31T10:44:25.520Z,15.90
2019-03-31T10:46:58.466Z,14.60
2019-03-31T10:49:29.390Z,13.75
2019-03-31T10:52:00.260Z,16.37
2019-03-31T10:54:31.127Z,15.53
2019-03-31T10:57:02.039Z,15.30
2019-03-31T10:59:31.986Z,15.67
2019-03-31T11:02:02.791Z,13.13
2019-03-31T11:04:33.679Z,14.18
2019-03-31T11:07:05.949Z,13.80
2019-03-31T11:09:35.883Z,13.83
2019-03-31T11:12:06.728Z,13.10
2019-03-31T11:14:37.659Z,16.67
2019-03-31T11:17:07.658Z,17.60
2019-03-31T11:19:38.789Z,16.17
2019-03-31T11:22:14.555Z,16.37
2019-03-31T11:24:45.395Z,17.03
2019-03-31T11:27:15.443Z,16.50
2019-03-31T11:29:46.311Z,17.10
2019-03-31T11:32:17.205Z,17.67
2019-03-31T11:34:48.115Z,16.70
2019-03-31T11:37:18.752Z,15.87
2019-03-31T11:39:49.743Z,14.07
2019-03-31T11:42:21.327Z,14.97
2019-03-31T11:44:52.548Z,14.47
2019-03-31T11:47:22.594Z,14.70
2019-03-31T11:49:53.783Z,14.47
2019-03-31T11:52:24.643Z,14.40
2019-03-31T11:54:55.571Z,14.13
2019-03-31T11:57:25.567Z,13.47
2019-03-31T11:59:55.510Z,13.10
2019-03-31T12:02:27.859Z,12.30
2019-03-31T12:04:57.895Z,11.00
2019-03-31T12:07:28.677Z,11.23
2019-03-31T12:09:58.771Z,10.13
2019-03-31T12:12:29.487Z,9.43
2019-03-31T12:15:00.516Z,8.93
2019-03-31T12:17:31.589Z,9.40
2019-03-31T12:20:01.542Z,8.53
2019-03-31T12:22:32.443Z,8.00
2019-03-31T12:25:03.974Z,8.37
2019-03-31T12:27:34.943Z,8.57
2019-03-31T12:30:05.395Z,8.20
2019-03-31T12:32:38.395Z,8.13
2019-03-31T12:35:08.961Z,7.53
2019-03-31T12:37:42.939Z,7.47
2019-03-31T12:40:15.432Z,6.53
2019-03-31T12:42:46.404Z,7.53
2019-03-31T12:45:17.339Z,7.13
2019-03-31T12:47:47.279Z,6.70
2019-03-31T12:50:18.190Z,7.10
2019-03-31T12:52:51.144Z,7.10
2019-03-31T12:55:21.660Z,7.17
2019-03-31T12:57:52.141Z,7.50
2019-03-31T13:00:22.323Z,7.33
2019-03-31T13:02:53.249Z,7.57
2019-03-31T13:05:24.219Z,7.90
2019-03-31T13:07:56.477Z,7.17
2019-03-31T13:10:25.743Z,7.83
2019-03-31T13:12:56.595Z,7.50
2019-03-31T13:15:27.470Z,7.47
2019-03-31T13:17:57.435Z,7.50
2019-03-31T13:20:27.315Z,7.23
2019-03-31T13:22:58.092Z,7.33
2019-03-31T13:25:28.075Z,6.70
2019-03-31T13:27:57.972Z,7.40
2019-03-31T13:30:28.798Z,6.90
2019-03-31T13:33:00.080Z,6.70
2019-03-31T13:35:30.049Z,6.40
2019-03-31T13:38:10.350Z,6.47
2019-03-31T13:40:32.320Z,6.57
2019-03-31T13:43:02.269Z,5.57
2019-03-31T13:45:33.050Z,5.47
2019-03-31T13:48:02.974Z,5.40
2019-03-31T13:50:33.875Z,5.37
2019-03-31T13:53:03.811Z,5.77
2019-03-31T13:55:34.609Z,5.50
2019-03-31T13:58:05.175Z,5.27
2019-03-31T14:00:41.843Z,6.03
2019-03-31T14:03:11.943Z,5.97
2019-03-31T14:05:42.706Z,6.00
2019-03-31T14:08:25.101Z,5.23
2019-03-31T14:10:45.111Z,5.63
2019-03-31T14:13:15.555Z,5.10
2019-03-31T14:15:46.331Z,4.33
2019-03-31T14:18:16.281Z,5.13
2019-03-31T14:20:47.147Z,4.97
2019-03-31T14:23:18.995Z,5.10
2019-03-31T14:25:49.935Z,4.77
2019-03-31T14:28:19.951Z,4.70
2019-03-31T14:30:50.795Z,4.50
2019-03-31T14:33:20.720Z,4.73
2019-03-31T14:35:51.534Z,3.83
2019-03-31T14:38:22.463Z,3.93
2019-03-31T14:40:52.432Z,3.70
2019-03-31T14:43:23.255Z,4.40
2019-03-31T14:45:54.125Z,4.10
2019-03-31T14:48:25.023Z,4.07
2019-03-31T14:50:55.928Z,4.20
2019-03-31T14:53:26.769Z,3.73
2019-03-31T14:55:57.647Z,4.70
2019-03-31T14:58:27.773Z,3.57
2019-03-31T15:00:58.575Z,3.83
2019-03-31T15:03:28.567Z,3.50
2019-03-31T15:05:59.443Z,3.77
2019-03-31T15:08:29.378Z,3.03
2019-03-31T15:11:00.274Z,3.53
2019-03-31T15:13:30.271Z,3.00
2019-03-31T15:16:01.232Z,4.23
2019-03-31T15:18:31.227Z,3.72
2019-03-31T15:21:01.983Z,3.60
2019-03-31T15:23:53.022Z,3.07
2019-03-31T15:26:23.831Z,4.37
2019-03-31T15:28:54.691Z,3.20
2019-03-31T15:31:24.659Z,3.50
2019-03-31T15:33:55.419Z,3.80
2019-03-31T15:36:26.303Z,3.50
2019-03-31T15:39:08.288Z,3.33
2019-03-31T15:41:29.762Z,4.25
2019-03-31T15:44:00.637Z,3.57
2019-03-31T15:46:31.510Z,3.93
2019-03-31T15:49:01.443Z,4.23
2019-03-31T15:51:32.227Z,3.90
2019-03-31T15:54:03.154Z,4.03
2019-03-31T15:56:34.058Z,4.33
2019-03-31T15:59:03.999Z,4.07
2019-03-31T16:01:35.704Z,3.87
2019-03-31T16:04:06.607Z,3.80
2019-03-31T16:06:37.463Z,3.17
2019-03-31T16:09:22.341Z,3.50
2019-03-31T16:11:53.125Z,3.30
2019-03-31T16:14:12.693Z,3.40
2019-03-31T16:16:42.266Z,2.90
2019-03-31T16:19:12.553Z,2.60
2019-03-31T16:21:44.283Z,3.27
2019-03-31T16:24:14.070Z,3.47
2019-03-31T16:26:43.655Z,3.40
2019-03-31T16:29:13.211Z,3.00
2019-03-31T16:31:42.829Z,3.00
2019-03-31T16:34:12.365Z,3.10
2019-03-31T16:36:41.960Z,2.90
2019-03-31T16:39:12.253Z,3.27
2019-03-31T16:41:42.559Z,2.57
2019-03-31T16:44:12.882Z,2.70
2019-03-31T16:46:43.224Z,2.23
2019-03-31T16:49:12.969Z,3.67
2019-03-31T16:51:43.220Z,2.77
2019-03-31T16:54:12.877Z,2.83
2019-03-31T16:56:43.119Z,2.53
2019-03-31T16:59:14.588Z,2.70
2019-03-31T17:01:44.189Z,1.93
2019-03-31T17:04:13.800Z,2.20
2019-03-31T17:06:43.419Z,2.60
2019-03-31T17:09:13.047Z,2.47
2019-03-31T17:11:42.650Z,2.57
2019-03-31T17:14:12.254Z,2.53
2019-03-31T17:16:42.479Z,2.47
2019-03-31T17:19:12.823Z,2.87
2019-03-31T17:21:44.737Z,2.43
2019-03-31T17:24:15.004Z,3.17
2019-03-31T17:26:45.358Z,3.00
2019-03-31T17:29:15.068Z,2.97
2019-03-31T17:31:45.343Z,3.07
2019-03-31T17:34:15.679Z,2.90
2019-03-31T17:36:45.975Z,2.33
2019-03-31T17:39:16.530Z,3.00
2019-03-31T17:41:46.987Z,2.47
2019-03-31T17:44:17.316Z,2.90
2019-03-31T17:46:47.721Z,2.67
2019-03-31T17:49:18.175Z,3.53
2019-03-31T17:51:48.540Z,7.50
2019-03-31T17:54:18.234Z,2.83
2019-03-31T17:56:48.579Z,3.13
2019-03-31T17:59:18.967Z,3.67
2019-03-31T18:01:49.306Z,3.57
2019-03-31T18:04:19.940Z,3.90
2019-03-31T18:06:50.206Z,2.90
2019-03-31T18:09:21.699Z,3.03
2019-03-31T18:11:51.590Z,3.07
2019-03-31T18:14:21.844Z,3.23
2019-03-31T18:16:52.254Z,3.67
2019-03-31T18:19:22.069Z,2.90
2019-03-31T18:21:52.346Z,3.93
2019-03-31T18:24:22.703Z,3.43
2019-03-31T18:26:52.419Z,3.83
2019-03-31T18:29:22.083Z,4.13
2019-03-31T18:31:51.750Z,3.90
2019-03-31T18:34:21.407Z,3.33
2019-03-31T18:36:51.753Z,3.33
2019-03-31T18:39:22.154Z,3.77
2019-03-31T18:41:51.844Z,4.20
2019-03-31T18:44:22.083Z,3.37
2019-03-31T18:46:51.778Z,3.00
2019-03-31T18:49:22.041Z,3.60
2019-03-31T18:51:51.741Z,3.10
2019-03-31T18:54:30.006Z,4.00
2019-03-31T18:57:05.434Z,3.97
2019-03-31T18:59:56.293Z,3.50
2019-03-31T19:02:54.165Z,3.97
2019-03-31T19:05:51.651Z,2.90
2019-03-31T19:08:38.936Z,3.80
2019-03-31T19:11:26.191Z,3.67
2019-03-31T19:14:21.128Z,3.40
2019-03-31T19:17:05.055Z,3.93
2019-03-31T19:19:53.767Z,3.60
2019-03-31T19:22:42.361Z,2.97
2019-03-31T19:25:43.092Z,3.97
2019-03-31T19:28:33.453Z,3.07
2019-03-31T19:31:09.443Z,4.73
2019-03-31T19:34:07.918Z,2.83
2019-03-31T19:36:48.757Z,4.72
2019-03-31T19:39:33.240Z,3.43
2019-03-31T19:42:34.857Z,3.07
2019-03-31T19:45:26.970Z,4.33
2019-03-31T19:48:34.602Z,3.63
2019-03-31T19:51:41.854Z,3.50
2019-03-31T19:54:45.170Z,3.43
2019-03-31T19:57:39.291Z,4.50
2019-03-31T20:00:34.842Z,4.30
2019-03-31T20:03:29.923Z,3.47
2019-03-31T20:06:22.007Z,4.07
2019-03-31T20:09:20.587Z,3.23
2019-03-31T20:12:18.514Z,3.17
2019-03-31T20:15:13.816Z,3.50
2019-03-31T20:17:53.928Z,4.70
2019-03-31T20:20:45.365Z,3.53
2019-03-31T20:23:43.157Z,3.60
2019-03-31T20:26:22.837Z,3.20
2019-03-31T20:29:04.935Z,3.47
2019-03-31T20:31:52.176Z,3.50
2019-03-31T20:34:27.510Z,4.20
2019-03-31T20:37:34.317Z,3.70
2019-03-31T20:40:36.202Z,3.30
2019-03-31T20:43:30.938Z,3.17
2019-03-31T20:46:04.037Z,3.10
2019-03-31T20:48:31.778Z,3.77
2019-03-31T20:51:01.274Z,3.23
2019-03-31T20:53:31.581Z,3.57
2019-03-31T20:56:01.240Z,3.20
2019-03-31T20:58:30.936Z,3.50
2019-03-31T21:01:00.555Z,3.53
2019-03-31T21:03:30.795Z,3.53
2019-03-31T21:06:00.549Z,4.07
2019-03-31T21:08:30.081Z,3.43
2019-03-31T21:11:01.458Z,3.43
2019-03-31T21:13:31.107Z,3.90
2019-03-31T21:16:00.755Z,3.57
2019-03-31T21:18:30.355Z,2.93
2019-03-31T21:20:59.950Z,2.93
2019-03-31T21:23:30.355Z,3.57
2019-03-31T21:26:00.683Z,3.30
2019-03-31T21:28:30.859Z,2.83
2019-03-31T21:31:01.099Z,3.37
2019-03-31T21:33:30.872Z,3.50
2019-03-31T21:36:01.459Z,2.90
2019-03-31T21:38:31.792Z,2.67
2019-03-31T21:41:01.448Z,3.27
2019-03-31T21:43:31.704Z,3.00
2019-03-31T21:46:02.052Z,3.40
2019-03-31T21:48:32.359Z,3.30
2019-03-31T21:51:02.707Z,3.47
2019-03-31T21:53:32.994Z,2.90
2019-03-31T21:56:03.326Z,3.60
2019-03-31T21:58:33.650Z,2.95
2019-03-31T22:01:04.085Z,2.87
2019-03-31T22:03:34.380Z,3.45
2019-03-31T22:06:04.703Z,2.63
2019-03-31T22:08:35.060Z,3.23
2019-03-31T22:11:05.418Z,3.27
2019-03-31T22:13:35.761Z,3.53
2019-03-31T22:16:05.375Z,3.00
2019-03-31T22:18:35.639Z,3.10
2019-03-31T22:21:06.036Z,2.80
2019-03-31T22:23:36.363Z,2.77
2019-03-31T22:26:06.043Z,3.20
2019-03-31T22:28:36.372Z,4.37
2019-03-31T22:31:06.111Z,3.77
2019-03-31T22:33:36.331Z,3.83
2019-03-31T22:36:21.629Z,3.77
2019-03-31T22:38:52.917Z,3.70
2019-03-31T22:41:23.366Z,3.00
2019-03-31T22:43:53.674Z,3.80
2019-03-31T22:46:23.991Z,3.70
2019-03-31T22:48:54.293Z,3.43
2019-03-31T22:51:24.521Z,2.97
2019-03-31T22:53:55.149Z,3.23
2019-03-31T22:56:25.492Z,3.73
2019-03-31T22:58:55.175Z,3.03
2019-03-31T23:01:25.403Z,3.83
2019-03-31T23:03:55.107Z,2.97
2019-03-31T23:06:25.376Z,5.10
2019-03-31T23:08:55.679Z,3.47
2019-03-31T23:11:27.845Z,3.63
2019-03-31T23:13:58.682Z,2.63
2019-03-31T23:16:28.854Z,3.53
2019-03-31T23:18:58.522Z,4.67
2019-03-31T23:21:28.882Z,4.00
2019-03-31T23:23:59.199Z,2.70
2019-03-31T23:26:29.534Z,4.10
2019-03-31T23:28:59.770Z,3.87
2019-03-31T23:31:30.090Z,3.63
2019-03-31T23:34:00.764Z,3.10
2019-03-31T23:36:31.076Z,3.40
2019-03-31T23:39:01.375Z,4.30
2019-03-31T23:41:31.682Z,4.07
2019-03-31T23:44:04.090Z,3.27
2019-03-31T23:46:34.398Z,4.13
2019-03-31T23:49:04.869Z,3.17
2019-03-31T23:51:35.171Z,4.10
2019-03-31T23:54:07.960Z,3.67
2019-03-31T23:56:38.268Z,4.83
2019-03-31T23:59:08.899Z,3.63
